sensor_id;sensor_type;location;lat;lon;timestamp;P1;durP1;ratioP1;P2;durP2;ratioP2
80193;SDS011;69515;42.072;21.504;2023-11-21T00:00:10;6.13;;;2.88;;
80193;SDS011;69515;42.072;21.504;2023-11-21T00:02:38;5.30;;;3.08;;
80193;SDS011;69515;42.072;21.504;2023-11-21T00:05:06;7.20;;;2.88;;
80193;SDS011;69515;42.072;21.504;2023-11-21T00:07:33;6.72;;;3.10;;
80193;SDS011;69515;42.072;21.504;2023-11-21T00:09:59;6.50;;;3.58;;
80193;SDS011;69515;42.072;21.504;2023-11-21T00:12:26;5.70;;;3.50;;
80193;SDS011;69515;42.072;21.504;2023-11-21T00:14:54;6.38;;;4.07;;
80193;SDS011;69515;42.072;21.504;2023-11-21T00:19:46;8.65;;;3.55;;
80193;SDS011;69515;42.072;21.504;2023-11-21T00:22:12;5.07;;;2.60;;
80193;SDS011;69515;42.072;21.504;2023-11-21T00:27:04;5.38;;;2.50;;
80193;SDS011;69515;42.072;21.504;2023-11-21T00:29:31;6.53;;;3.28;;
80193;SDS011;69515;42.072;21.504;2023-11-21T00:31:57;6.93;;;3.75;;
80193;SDS011;69515;42.072;21.504;2023-11-21T00:36:49;6.28;;;3.47;;
80193;SDS011;69515;42.072;21.504;2023-11-21T00:39:16;5.47;;;3.28;;
80193;SDS011;69515;42.072;21.504;2023-11-21T00:44:09;5.13;;;2.90;;
80193;SDS011;69515;42.072;21.504;2023-11-21T00:46:36;7.10;;;3.28;;
80193;SDS011;69515;42.072;21.504;2023-11-21T00:51:30;6.50;;;2.60;;
80193;SDS011;69515;42.072;21.504;2023-11-21T00:56:23;4.97;;;2.03;;
80193;SDS011;69515;42.072;21.504;2023-11-21T01:01:17;3.85;;;2.03;;
80193;SDS011;69515;42.072;21.504;2023-11-21T01:06:11;5.65;;;2.30;;
80193;SDS011;69515;42.072;21.504;2023-11-21T01:11:03;4.10;;;2.20;;
80193;SDS011;69515;42.072;21.504;2023-11-21T01:13:30;4.05;;;2.50;;
80193;SDS011;69515;42.072;21.504;2023-11-21T01:15:56;4.68;;;2.50;;
80193;SDS011;69515;42.072;21.504;2023-11-21T01:18:22;4.57;;;2.55;;
80193;SDS011;69515;42.072;21.504;2023-11-21T01:20:50;5.18;;;2.50;;
80193;SDS011;69515;42.072;21.504;2023-11-21T01:23:18;4.47;;;1.90;;
80193;SDS011;69515;42.072;21.504;2023-11-21T01:25:45;5.05;;;2.40;;
80193;SDS011;69515;42.072;21.504;2023-11-21T01:30:37;5.00;;;2.25;;
80193;SDS011;69515;42.072;21.504;2023-11-21T01:35:29;5.07;;;2.15;;
80193;SDS011;69515;42.072;21.504;2023-11-21T01:37:55;7.78;;;3.63;;
80193;SDS011;69515;42.072;21.504;2023-11-21T01:40:22;5.97;;;3.00;;
80193;SDS011;69515;42.072;21.504;2023-11-21T01:42:49;6.18;;;3.45;;
80193;SDS011;69515;42.072;21.504;2023-11-21T01:47:42;4.95;;;2.67;;
80193;SDS011;69515;42.072;21.504;2023-11-21T01:50:12;5.35;;;3.05;;
80193;SDS011;69515;42.072;21.504;2023-11-21T01:52:40;5.25;;;2.33;;
80193;SDS011;69515;42.072;21.504;2023-11-21T01:55:07;5.50;;;2.47;;
80193;SDS011;69515;42.072;21.504;2023-11-21T01:57:33;4.95;;;2.45;;
80193;SDS011;69515;42.072;21.504;2023-11-21T02:00:00;4.03;;;2.30;;
80193;SDS011;69515;42.072;21.504;2023-11-21T02:02:43;4.50;;;2.70;;
80193;SDS011;69515;42.072;21.504;2023-11-21T02:05:13;5.03;;;2.42;;
80193;SDS011;69515;42.072;21.504;2023-11-21T02:07:40;5.03;;;2.40;;
80193;SDS011;69515;42.072;21.504;2023-11-21T02:10:08;5.65;;;2.60;;
80193;SDS011;69515;42.072;21.504;2023-11-21T02:12:34;5.18;;;2.90;;
80193;SDS011;69515;42.072;21.504;2023-11-21T02:15:05;5.93;;;3.00;;
80193;SDS011;69515;42.072;21.504;2023-11-21T02:17:35;5.10;;;3.00;;
80193;SDS011;69515;42.072;21.504;2023-11-21T02:20:01;6.50;;;3.40;;
80193;SDS011;69515;42.072;21.504;2023-11-21T02:22:29;5.55;;;3.03;;
80193;SDS011;69515;42.072;21.504;2023-11-21T02:24:57;5.03;;;2.88;;
80193;SDS011;69515;42.072;21.504;2023-11-21T02:29:50;5.88;;;3.15;;
80193;SDS011;69515;42.072;21.504;2023-11-21T02:32:16;6.75;;;2.90;;
80193;SDS011;69515;42.072;21.504;2023-11-21T02:34:44;5.88;;;3.40;;
80193;SDS011;69515;42.072;21.504;2023-11-21T02:37:10;5.63;;;2.90;;
80193;SDS011;69515;42.072;21.504;2023-11-21T02:39:37;5.50;;;3.10;;
80193;SDS011;69515;42.072;21.504;2023-11-21T02:42:03;5.35;;;3.30;;
80193;SDS011;69515;42.072;21.504;2023-11-21T02:44:29;5.60;;;3.20;;
80193;SDS011;69515;42.072;21.504;2023-11-21T02:46:57;5.55;;;3.08;;
80193;SDS011;69515;42.072;21.504;2023-11-21T02:49:24;6.85;;;3.15;;
80193;SDS011;69515;42.072;21.504;2023-11-21T02:51:53;5.85;;;3.03;;
80193;SDS011;69515;42.072;21.504;2023-11-21T02:54:22;4.63;;;2.65;;
80193;SDS011;69515;42.072;21.504;2023-11-21T03:02:21;6.38;;;2.97;;
80193;SDS011;69515;42.072;21.504;2023-11-21T03:07:51;5.50;;;3.03;;
80193;SDS011;69515;42.072;21.504;2023-11-21T03:13:02;9.13;;;3.88;;
80193;SDS011;69515;42.072;21.504;2023-11-21T03:15:29;6.95;;;3.58;;
80193;SDS011;69515;42.072;21.504;2023-11-21T03:17:57;6.70;;;3.50;;
80193;SDS011;69515;42.072;21.504;2023-11-21T03:20:24;5.32;;;3.28;;
80193;SDS011;69515;42.072;21.504;2023-11-21T03:22:50;6.50;;;3.13;;
80193;SDS011;69515;42.072;21.504;2023-11-21T03:27:43;5.82;;;2.85;;
80193;SDS011;69515;42.072;21.504;2023-11-21T03:30:09;6.03;;;3.13;;
80193;SDS011;69515;42.072;21.504;2023-11-21T03:32:36;5.57;;;3.10;;
80193;SDS011;69515;42.072;21.504;2023-11-21T03:35:02;5.68;;;3.17;;
80193;SDS011;69515;42.072;21.504;2023-11-21T03:37:28;6.28;;;3.60;;
80193;SDS011;69515;42.072;21.504;2023-11-21T03:42:38;6.38;;;3.83;;
80193;SDS011;69515;42.072;21.504;2023-11-21T03:45:05;7.28;;;3.72;;
80193;SDS011;69515;42.072;21.504;2023-11-21T03:47:31;7.05;;;3.22;;
80193;SDS011;69515;42.072;21.504;2023-11-21T03:52:24;6.75;;;3.63;;
80193;SDS011;69515;42.072;21.504;2023-11-21T03:54:50;11.88;;;3.78;;
80193;SDS011;69515;42.072;21.504;2023-11-21T03:59:43;8.40;;;5.00;;
80193;SDS011;69515;42.072;21.504;2023-11-21T04:02:09;5.38;;;3.28;;
80193;SDS011;69515;42.072;21.504;2023-11-21T04:04:35;6.82;;;3.33;;
80193;SDS011;69515;42.072;21.504;2023-11-21T04:07:02;7.22;;;4.07;;
80193;SDS011;69515;42.072;21.504;2023-11-21T04:11:54;5.60;;;3.22;;
80193;SDS011;69515;42.072;21.504;2023-11-21T04:14:20;6.97;;;4.00;;
80193;SDS011;69515;42.072;21.504;2023-11-21T04:19:13;6.30;;;3.22;;
80193;SDS011;69515;42.072;21.504;2023-11-21T04:21:42;6.63;;;3.80;;
80193;SDS011;69515;42.072;21.504;2023-11-21T04:26:34;7.47;;;3.78;;
80193;SDS011;69515;42.072;21.504;2023-11-21T04:29:00;6.57;;;3.70;;
80193;SDS011;69515;42.072;21.504;2023-11-21T04:33:52;4.78;;;3.00;;
80193;SDS011;69515;42.072;21.504;2023-11-21T04:36:19;6.38;;;3.30;;
80193;SDS011;69515;42.072;21.504;2023-11-21T04:41:11;6.10;;;3.08;;
80193;SDS011;69515;42.072;21.504;2023-11-21T04:46:03;5.40;;;2.67;;
80193;SDS011;69515;42.072;21.504;2023-11-21T04:50:55;5.40;;;2.58;;
80193;SDS011;69515;42.072;21.504;2023-11-21T04:55:48;5.03;;;2.85;;
80193;SDS011;69515;42.072;21.504;2023-11-21T04:58:14;5.05;;;3.08;;
80193;SDS011;69515;42.072;21.504;2023-11-21T05:00:40;5.15;;;2.60;;
80193;SDS011;69515;42.072;21.504;2023-11-21T05:03:06;4.60;;;2.47;;
80193;SDS011;69515;42.072;21.504;2023-11-21T05:05:33;4.88;;;2.53;;
80193;SDS011;69515;42.072;21.504;2023-11-21T05:07:59;7.18;;;3.60;;
80193;SDS011;69515;42.072;21.504;2023-11-21T05:10:26;5.15;;;2.60;;
80193;SDS011;69515;42.072;21.504;2023-11-21T05:12:54;5.25;;;2.78;;
80193;SDS011;69515;42.072;21.504;2023-11-21T05:15:20;5.35;;;2.90;;
80193;SDS011;69515;42.072;21.504;2023-11-21T05:17:47;5.03;;;2.70;;
80193;SDS011;69515;42.072;21.504;2023-11-21T05:20:18;5.60;;;2.95;;
80193;SDS011;69515;42.072;21.504;2023-11-21T05:22:48;4.60;;;2.50;;
80193;SDS011;69515;42.072;21.504;2023-11-21T05:27:42;5.30;;;2.90;;
80193;SDS011;69515;42.072;21.504;2023-11-21T05:30:09;6.30;;;3.00;;
80193;SDS011;69515;42.072;21.504;2023-11-21T05:32:38;8.00;;;3.58;;
80193;SDS011;69515;42.072;21.504;2023-11-21T05:35:04;5.57;;;2.90;;
80193;SDS011;69515;42.072;21.504;2023-11-21T05:37:37;5.72;;;2.83;;
80193;SDS011;69515;42.072;21.504;2023-11-21T05:40:07;5.78;;;3.05;;
80193;SDS011;69515;42.072;21.504;2023-11-21T05:42:34;6.03;;;3.42;;
80193;SDS011;69515;42.072;21.504;2023-11-21T05:45:00;5.65;;;2.65;;
80193;SDS011;69515;42.072;21.504;2023-11-21T05:47:43;6.70;;;3.00;;
80193;SDS011;69515;42.072;21.504;2023-11-21T05:50:11;6.22;;;3.20;;
80193;SDS011;69515;42.072;21.504;2023-11-21T05:52:39;5.80;;;3.45;;
80193;SDS011;69515;42.072;21.504;2023-11-21T05:55:06;5.80;;;3.20;;
80193;SDS011;69515;42.072;21.504;2023-11-21T05:57:36;9.85;;;5.45;;
80193;SDS011;69515;42.072;21.504;2023-11-21T06:00:03;7.15;;;3.97;;
80193;SDS011;69515;42.072;21.504;2023-11-21T06:02:36;8.70;;;3.75;;
80193;SDS011;69515;42.072;21.504;2023-11-21T06:05:02;7.78;;;4.10;;
80193;SDS011;69515;42.072;21.504;2023-11-21T06:07:29;7.35;;;3.58;;
80193;SDS011;69515;42.072;21.504;2023-11-21T06:12:22;5.97;;;3.30;;
80193;SDS011;69515;42.072;21.504;2023-11-21T06:17:14;6.63;;;3.10;;
80193;SDS011;69515;42.072;21.504;2023-11-21T06:22:06;5.50;;;3.10;;
80193;SDS011;69515;42.072;21.504;2023-11-21T06:24:33;5.97;;;3.08;;
80193;SDS011;69515;42.072;21.504;2023-11-21T06:29:25;7.32;;;3.97;;
80193;SDS011;69515;42.072;21.504;2023-11-21T06:31:51;7.68;;;3.40;;
80193;SDS011;69515;42.072;21.504;2023-11-21T06:34:20;7.35;;;3.42;;
80193;SDS011;69515;42.072;21.504;2023-11-21T06:36:47;7.03;;;3.50;;
80193;SDS011;69515;42.072;21.504;2023-11-21T06:39:13;6.50;;;3.70;;
80193;SDS011;69515;42.072;21.504;2023-11-21T06:41:40;5.25;;;3.13;;
80193;SDS011;69515;42.072;21.504;2023-11-21T06:44:06;5.07;;;3.00;;
80193;SDS011;69515;42.072;21.504;2023-11-21T06:46:34;6.63;;;3.40;;
80193;SDS011;69515;42.072;21.504;2023-11-21T06:49:00;6.40;;;3.58;;
80193;SDS011;69515;42.072;21.504;2023-11-21T06:51:26;10.80;;;5.93;;
80193;SDS011;69515;42.072;21.504;2023-11-21T06:53:52;11.00;;;5.38;;
80193;SDS011;69515;42.072;21.504;2023-11-21T06:56:19;10.02;;;5.18;;
80193;SDS011;69515;42.072;21.504;2023-11-21T06:58:45;12.30;;;5.75;;
80193;SDS011;69515;42.072;21.504;2023-11-21T07:01:12;25.23;;;10.13;;
80193;SDS011;69515;42.072;21.504;2023-11-21T07:03:40;13.98;;;9.05;;
80193;SDS011;69515;42.072;21.504;2023-11-21T07:06:07;14.23;;;8.10;;
80193;SDS011;69515;42.072;21.504;2023-11-21T07:08:33;15.52;;;8.60;;
80193;SDS011;69515;42.072;21.504;2023-11-21T07:10:59;14.57;;;8.05;;
80193;SDS011;69515;42.072;21.504;2023-11-21T07:13:25;13.93;;;9.00;;
80193;SDS011;69515;42.072;21.504;2023-11-21T07:15:52;14.65;;;8.75;;
80193;SDS011;69515;42.072;21.504;2023-11-21T07:18:19;14.23;;;8.60;;
80193;SDS011;69515;42.072;21.504;2023-11-21T07:20:45;17.08;;;10.13;;
80193;SDS011;69515;42.072;21.504;2023-11-21T07:23:11;16.08;;;9.45;;
80193;SDS011;69515;42.072;21.504;2023-11-21T07:25:38;13.73;;;9.38;;
80193;SDS011;69515;42.072;21.504;2023-11-21T07:28:04;17.95;;;12.27;;
80193;SDS011;69515;42.072;21.504;2023-11-21T07:30:30;20.38;;;11.80;;
80193;SDS011;69515;42.072;21.504;2023-11-21T07:32:58;16.17;;;10.65;;
80193;SDS011;69515;42.072;21.504;2023-11-21T07:35:25;14.60;;;10.20;;
80193;SDS011;69515;42.072;21.504;2023-11-21T07:37:51;13.80;;;9.18;;
80193;SDS011;69515;42.072;21.504;2023-11-21T07:40:17;14.27;;;9.73;;
80193;SDS011;69515;42.072;21.504;2023-11-21T07:42:44;14.18;;;10.20;;
80193;SDS011;69515;42.072;21.504;2023-11-21T07:45:10;18.08;;;11.05;;
80193;SDS011;69515;42.072;21.504;2023-11-21T07:47:36;14.60;;;8.82;;
80193;SDS011;69515;42.072;21.504;2023-11-21T07:50:04;16.67;;;10.40;;
80193;SDS011;69515;42.072;21.504;2023-11-21T07:52:32;13.05;;;8.73;;
80193;SDS011;69515;42.072;21.504;2023-11-21T07:54:58;16.75;;;9.55;;
80193;SDS011;69515;42.072;21.504;2023-11-21T07:57:25;32.38;;;10.27;;
80193;SDS011;69515;42.072;21.504;2023-11-21T07:59:51;26.27;;;13.13;;
80193;SDS011;69515;42.072;21.504;2023-11-21T08:02:19;15.63;;;9.52;;
80193;SDS011;69515;42.072;21.504;2023-11-21T08:04:48;15.85;;;10.65;;
80193;SDS011;69515;42.072;21.504;2023-11-21T08:07:15;17.60;;;10.25;;
80193;SDS011;69515;42.072;21.504;2023-11-21T08:09:42;13.63;;;8.70;;
80193;SDS011;69515;42.072;21.504;2023-11-21T08:12:09;13.95;;;8.93;;
80193;SDS011;69515;42.072;21.504;2023-11-21T08:14:36;14.18;;;9.30;;
80193;SDS011;69515;42.072;21.504;2023-11-21T08:17:04;14.63;;;9.50;;
80193;SDS011;69515;42.072;21.504;2023-11-21T08:19:30;13.20;;;8.73;;
80193;SDS011;69515;42.072;21.504;2023-11-21T08:21:58;16.17;;;10.35;;
80193;SDS011;69515;42.072;21.504;2023-11-21T08:24:24;16.55;;;9.57;;
80193;SDS011;69515;42.072;21.504;2023-11-21T08:26:51;18.23;;;10.52;;
80193;SDS011;69515;42.072;21.504;2023-11-21T08:29:19;16.27;;;10.57;;
80193;SDS011;69515;42.072;21.504;2023-11-21T08:31:45;17.90;;;10.90;;
80193;SDS011;69515;42.072;21.504;2023-11-21T08:34:12;19.98;;;11.05;;
80193;SDS011;69515;42.072;21.504;2023-11-21T08:36:42;16.63;;;10.35;;
80193;SDS011;69515;42.072;21.504;2023-11-21T08:39:08;16.67;;;10.63;;
80193;SDS011;69515;42.072;21.504;2023-11-21T08:41:44;16.58;;;10.20;;
80193;SDS011;69515;42.072;21.504;2023-11-21T08:44:10;13.75;;;8.93;;
80193;SDS011;69515;42.072;21.504;2023-11-21T08:46:37;17.05;;;10.52;;
80193;SDS011;69515;42.072;21.504;2023-11-21T08:49:04;18.73;;;10.25;;
80193;SDS011;69515;42.072;21.504;2023-11-21T08:51:31;14.88;;;9.70;;
80193;SDS011;69515;42.072;21.504;2023-11-21T08:53:57;17.27;;;9.88;;
80193;SDS011;69515;42.072;21.504;2023-11-21T08:56:25;15.10;;;10.95;;
80193;SDS011;69515;42.072;21.504;2023-11-21T08:58:52;16.73;;;10.63;;
80193;SDS011;69515;42.072;21.504;2023-11-21T09:01:18;15.38;;;10.30;;
80193;SDS011;69515;42.072;21.504;2023-11-21T09:03:44;13.57;;;9.60;;
80193;SDS011;69515;42.072;21.504;2023-11-21T09:06:11;20.95;;;9.15;;
80193;SDS011;69515;42.072;21.504;2023-11-21T09:08:37;14.55;;;9.60;;
80193;SDS011;69515;42.072;21.504;2023-11-21T09:11:03;14.77;;;10.57;;
80193;SDS011;69515;42.072;21.504;2023-11-21T09:13:30;17.02;;;9.90;;
80193;SDS011;69515;42.072;21.504;2023-11-21T09:15:57;15.63;;;9.30;;
80193;SDS011;69515;42.072;21.504;2023-11-21T09:18:23;14.80;;;9.63;;
80193;SDS011;69515;42.072;21.504;2023-11-21T09:20:50;15.77;;;10.30;;
80193;SDS011;69515;42.072;21.504;2023-11-21T09:23:16;17.70;;;9.98;;
80193;SDS011;69515;42.072;21.504;2023-11-21T09:25:43;18.30;;;11.25;;
80193;SDS011;69515;42.072;21.504;2023-11-21T09:28:11;16.10;;;9.98;;
80193;SDS011;69515;42.072;21.504;2023-11-21T09:30:37;15.77;;;10.25;;
80193;SDS011;69515;42.072;21.504;2023-11-21T09:33:04;18.90;;;11.23;;
80193;SDS011;69515;42.072;21.504;2023-11-21T09:35:37;19.35;;;11.32;;
80193;SDS011;69515;42.072;21.504;2023-11-21T09:38:03;17.40;;;10.65;;
80193;SDS011;69515;42.072;21.504;2023-11-21T09:40:36;18.08;;;10.88;;
80193;SDS011;69515;42.072;21.504;2023-11-21T09:43:06;22.33;;;12.55;;
80193;SDS011;69515;42.072;21.504;2023-11-21T09:45:36;21.55;;;12.93;;
80193;SDS011;69515;42.072;21.504;2023-11-21T09:48:04;18.50;;;11.60;;
80193;SDS011;69515;42.072;21.504;2023-11-21T09:50:31;23.05;;;13.45;;
80193;SDS011;69515;42.072;21.504;2023-11-21T09:53:09;18.98;;;13.52;;
80193;SDS011;69515;42.072;21.504;2023-11-21T09:55:39;21.10;;;13.73;;
80193;SDS011;69515;42.072;21.504;2023-11-21T09:58:09;23.65;;;12.95;;
80193;SDS011;69515;42.072;21.504;2023-11-21T10:00:40;23.25;;;13.45;;
80193;SDS011;69515;42.072;21.504;2023-11-21T10:03:07;24.38;;;14.05;;
80193;SDS011;69515;42.072;21.504;2023-11-21T10:05:34;25.55;;;15.15;;
80193;SDS011;69515;42.072;21.504;2023-11-21T10:08:00;26.73;;;14.40;;
80193;SDS011;69515;42.072;21.504;2023-11-21T10:10:27;24.48;;;15.25;;
80193;SDS011;69515;42.072;21.504;2023-11-21T10:12:57;24.92;;;14.98;;
80193;SDS011;69515;42.072;21.504;2023-11-21T10:15:26;24.38;;;16.33;;
80193;SDS011;69515;42.072;21.504;2023-11-21T10:18:10;23.45;;;15.15;;
80193;SDS011;69515;42.072;21.504;2023-11-21T10:20:54;27.42;;;15.57;;
80193;SDS011;69515;42.072;21.504;2023-11-21T10:23:23;25.48;;;14.23;;
80193;SDS011;69515;42.072;21.504;2023-11-21T10:25:54;22.35;;;13.90;;
80193;SDS011;69515;42.072;21.504;2023-11-21T10:28:21;21.75;;;14.15;;
80193;SDS011;69515;42.072;21.504;2023-11-21T10:30:47;20.92;;;13.85;;
80193;SDS011;69515;42.072;21.504;2023-11-21T10:33:13;19.80;;;11.73;;
80193;SDS011;69515;42.072;21.504;2023-11-21T10:35:43;17.92;;;12.20;;
80193;SDS011;69515;42.072;21.504;2023-11-21T10:38:19;20.33;;;11.80;;
80193;SDS011;69515;42.072;21.504;2023-11-21T10:40:48;18.23;;;11.13;;
80193;SDS011;69515;42.072;21.504;2023-11-21T10:43:15;21.67;;;13.50;;
80193;SDS011;69515;42.072;21.504;2023-11-21T10:45:42;23.50;;;13.40;;
80193;SDS011;69515;42.072;21.504;2023-11-21T10:48:09;20.40;;;14.35;;
80193;SDS011;69515;42.072;21.504;2023-11-21T10:50:45;24.73;;;14.65;;
80193;SDS011;69515;42.072;21.504;2023-11-21T10:53:11;23.65;;;13.75;;
80193;SDS011;69515;42.072;21.504;2023-11-21T10:55:38;27.38;;;15.45;;
80193;SDS011;69515;42.072;21.504;2023-11-21T10:58:04;28.15;;;15.38;;
80193;SDS011;69515;42.072;21.504;2023-11-21T11:00:31;25.27;;;15.80;;
80193;SDS011;69515;42.072;21.504;2023-11-21T11:02:58;23.15;;;15.40;;
80193;SDS011;69515;42.072;21.504;2023-11-21T11:05:26;21.23;;;13.55;;
80193;SDS011;69515;42.072;21.504;2023-11-21T11:08:03;23.98;;;13.75;;
80193;SDS011;69515;42.072;21.504;2023-11-21T11:10:30;22.33;;;13.77;;
80193;SDS011;69515;42.072;21.504;2023-11-21T11:12:58;21.20;;;13.93;;
80193;SDS011;69515;42.072;21.504;2023-11-21T11:15:24;28.17;;;15.20;;
80193;SDS011;69515;42.072;21.504;2023-11-21T11:17:52;22.55;;;14.20;;
80193;SDS011;69515;42.072;21.504;2023-11-21T11:20:29;25.00;;;14.65;;
80193;SDS011;69515;42.072;21.504;2023-11-21T11:23:08;22.85;;;13.35;;
80193;SDS011;69515;42.072;21.504;2023-11-21T11:30:39;26.95;;;14.25;;
80193;SDS011;69515;42.072;21.504;2023-11-21T11:36:00;24.35;;;13.05;;
80193;SDS011;69515;42.072;21.504;2023-11-21T11:38:31;23.75;;;14.27;;
80193;SDS011;69515;42.072;21.504;2023-11-21T11:41:04;25.38;;;15.00;;
80193;SDS011;69515;42.072;21.504;2023-11-21T11:43:31;29.67;;;15.70;;
80193;SDS011;69515;42.072;21.504;2023-11-21T11:46:09;24.00;;;14.93;;
80193;SDS011;69515;42.072;21.504;2023-11-21T11:48:38;23.58;;;13.98;;
80193;SDS011;69515;42.072;21.504;2023-11-21T11:51:15;24.42;;;13.77;;
80193;SDS011;69515;42.072;21.504;2023-11-21T11:53:47;24.15;;;14.13;;
80193;SDS011;69515;42.072;21.504;2023-11-21T11:56:46;24.88;;;14.23;;
80193;SDS011;69515;42.072;21.504;2023-11-21T11:59:17;24.33;;;14.18;;
80193;SDS011;69515;42.072;21.504;2023-11-21T12:01:45;21.15;;;13.00;;
80193;SDS011;69515;42.072;21.504;2023-11-21T12:07:20;26.40;;;14.50;;
80193;SDS011;69515;42.072;21.504;2023-11-21T12:09:47;29.70;;;14.95;;
80193;SDS011;69515;42.072;21.504;2023-11-21T12:12:14;24.20;;;13.45;;
80193;SDS011;69515;42.072;21.504;2023-11-21T12:14:42;23.85;;;15.15;;
80193;SDS011;69515;42.072;21.504;2023-11-21T12:17:08;20.98;;;12.27;;
80193;SDS011;69515;42.072;21.504;2023-11-21T12:20:01;20.85;;;11.20;;
80193;SDS011;69515;42.072;21.504;2023-11-21T12:22:29;16.13;;;10.68;;
80193;SDS011;69515;42.072;21.504;2023-11-21T12:24:56;20.83;;;11.05;;
80193;SDS011;69515;42.072;21.504;2023-11-21T12:27:22;21.05;;;12.00;;
80193;SDS011;69515;42.072;21.504;2023-11-21T12:29:48;19.95;;;11.07;;
80193;SDS011;69515;42.072;21.504;2023-11-21T12:32:14;24.35;;;12.63;;
80193;SDS011;69515;42.072;21.504;2023-11-21T12:34:43;30.92;;;15.07;;
80193;SDS011;69515;42.072;21.504;2023-11-21T12:37:11;24.45;;;14.35;;
80193;SDS011;69515;42.072;21.504;2023-11-21T12:39:58;24.48;;;13.45;;
80193;SDS011;69515;42.072;21.504;2023-11-21T12:42:25;25.75;;;13.90;;
80193;SDS011;69515;42.072;21.504;2023-11-21T12:45:07;29.17;;;14.30;;
80193;SDS011;69515;42.072;21.504;2023-11-21T12:47:34;23.92;;;13.52;;
80193;SDS011;69515;42.072;21.504;2023-11-21T12:58:38;23.48;;;13.30;;
80193;SDS011;69515;42.072;21.504;2023-11-21T13:01:08;19.02;;;11.98;;
80193;SDS011;69515;42.072;21.504;2023-11-21T13:03:39;21.05;;;12.00;;
80193;SDS011;69515;42.072;21.504;2023-11-21T13:06:06;18.25;;;11.02;;
80193;SDS011;69515;42.072;21.504;2023-11-21T13:08:34;20.55;;;11.55;;
80193;SDS011;69515;42.072;21.504;2023-11-21T13:11:10;18.50;;;9.80;;
80193;SDS011;69515;42.072;21.504;2023-11-21T13:13:40;18.65;;;9.30;;
80193;SDS011;69515;42.072;21.504;2023-11-21T13:16:10;17.67;;;10.07;;
80193;SDS011;69515;42.072;21.504;2023-11-21T13:18:38;24.10;;;12.80;;
80193;SDS011;69515;42.072;21.504;2023-11-21T13:21:12;17.08;;;10.90;;
80193;SDS011;69515;42.072;21.504;2023-11-21T13:23:40;22.23;;;12.23;;
80193;SDS011;69515;42.072;21.504;2023-11-21T13:26:08;22.75;;;12.75;;
80193;SDS011;69515;42.072;21.504;2023-11-21T13:28:35;20.10;;;12.65;;
80193;SDS011;69515;42.072;21.504;2023-11-21T13:31:02;21.23;;;11.80;;
80193;SDS011;69515;42.072;21.504;2023-11-21T13:33:49;19.35;;;11.07;;
80193;SDS011;69515;42.072;21.504;2023-11-21T13:36:24;18.80;;;11.20;;
80193;SDS011;69515;42.072;21.504;2023-11-21T13:38:55;21.95;;;11.38;;
80193;SDS011;69515;42.072;21.504;2023-11-21T13:41:24;15.23;;;10.07;;
80193;SDS011;69515;42.072;21.504;2023-11-21T13:43:56;15.38;;;9.70;;
80193;SDS011;69515;42.072;21.504;2023-11-21T13:49:06;16.92;;;8.93;;
80193;SDS011;69515;42.072;21.504;2023-11-21T13:51:35;14.77;;;9.30;;
80193;SDS011;69515;42.072;21.504;2023-11-21T13:54:09;16.48;;;9.75;;
80193;SDS011;69515;42.072;21.504;2023-11-21T13:56:36;18.33;;;9.88;;
80193;SDS011;69515;42.072;21.504;2023-11-21T13:59:04;14.95;;;9.15;;
80193;SDS011;69515;42.072;21.504;2023-11-21T14:01:50;14.90;;;9.05;;
80193;SDS011;69515;42.072;21.504;2023-11-21T14:04:25;15.52;;;9.30;;
80193;SDS011;69515;42.072;21.504;2023-11-21T14:06:58;16.25;;;9.98;;
80193;SDS011;69515;42.072;21.504;2023-11-21T14:09:44;16.85;;;9.75;;
80193;SDS011;69515;42.072;21.504;2023-11-21T14:12:11;19.13;;;10.13;;
80193;SDS011;69515;42.072;21.504;2023-11-21T14:14:38;17.33;;;9.50;;
80193;SDS011;69515;42.072;21.504;2023-11-21T14:17:07;15.38;;;9.02;;
80193;SDS011;69515;42.072;21.504;2023-11-21T14:19:36;15.68;;;9.38;;
80193;SDS011;69515;42.072;21.504;2023-11-21T14:22:06;17.88;;;11.48;;
80193;SDS011;69515;42.072;21.504;2023-11-21T14:24:35;18.17;;;10.70;;
80193;SDS011;69515;42.072;21.504;2023-11-21T14:27:01;18.70;;;11.68;;
80193;SDS011;69515;42.072;21.504;2023-11-21T14:29:28;11.65;;;6.53;;
80193;SDS011;69515;42.072;21.504;2023-11-21T14:31:57;11.70;;;6.30;;
80193;SDS011;69515;42.072;21.504;2023-11-21T14:34:45;16.13;;;10.55;;
80193;SDS011;69515;42.072;21.504;2023-11-21T14:37:14;19.45;;;12.20;;
80193;SDS011;69515;42.072;21.504;2023-11-21T14:39:45;20.20;;;11.95;;
80193;SDS011;69515;42.072;21.504;2023-11-21T14:42:15;20.38;;;11.13;;
80193;SDS011;69515;42.072;21.504;2023-11-21T14:44:50;19.13;;;12.13;;
80193;SDS011;69515;42.072;21.504;2023-11-21T14:47:20;21.60;;;12.20;;
80193;SDS011;69515;42.072;21.504;2023-11-21T14:49:55;18.95;;;11.65;;
80193;SDS011;69515;42.072;21.504;2023-11-21T14:52:24;17.95;;;11.07;;
80193;SDS011;69515;42.072;21.504;2023-11-21T14:55:01;11.68;;;6.53;;
80193;SDS011;69515;42.072;21.504;2023-11-21T14:57:51;13.05;;;7.28;;
80193;SDS011;69515;42.072;21.504;2023-11-21T15:00:17;6.60;;;2.63;;
80193;SDS011;69515;42.072;21.504;2023-11-21T15:03:10;6.63;;;3.40;;
80193;SDS011;69515;42.072;21.504;2023-11-21T15:05:52;5.47;;;3.28;;
80193;SDS011;69515;42.072;21.504;2023-11-21T15:08:19;5.70;;;2.70;;
80193;SDS011;69515;42.072;21.504;2023-11-21T15:10:51;17.73;;;10.73;;
80193;SDS011;69515;42.072;21.504;2023-11-21T15:13:19;18.92;;;10.50;;
80193;SDS011;69515;42.072;21.504;2023-11-21T15:15:47;15.65;;;8.82;;
80193;SDS011;69515;42.072;21.504;2023-11-21T15:18:13;7.10;;;4.10;;
80193;SDS011;69515;42.072;21.504;2023-11-21T15:20:40;7.32;;;3.65;;
80193;SDS011;69515;42.072;21.504;2023-11-21T15:23:07;6.07;;;2.95;;
80193;SDS011;69515;42.072;21.504;2023-11-21T15:25:33;5.15;;;2.75;;
80193;SDS011;69515;42.072;21.504;2023-11-21T15:28:01;4.55;;;2.50;;
80193;SDS011;69515;42.072;21.504;2023-11-21T15:30:28;5.57;;;3.40;;
80193;SDS011;69515;42.072;21.504;2023-11-21T15:32:59;6.47;;;3.35;;
80193;SDS011;69515;42.072;21.504;2023-11-21T15:35:31;6.78;;;3.80;;
80193;SDS011;69515;42.072;21.504;2023-11-21T15:37:58;7.30;;;4.72;;
80193;SDS011;69515;42.072;21.504;2023-11-21T15:40:25;6.25;;;2.78;;
80193;SDS011;69515;42.072;21.504;2023-11-21T15:42:52;4.75;;;2.50;;
80193;SDS011;69515;42.072;21.504;2023-11-21T15:45:20;5.82;;;2.88;;
80193;SDS011;69515;42.072;21.504;2023-11-21T15:48:00;5.88;;;3.58;;
80193;SDS011;69515;42.072;21.504;2023-11-21T15:50:41;6.05;;;3.17;;
80193;SDS011;69515;42.072;21.504;2023-11-21T15:53:07;5.28;;;3.28;;
80193;SDS011;69515;42.072;21.504;2023-11-21T15:55:33;7.20;;;3.38;;
80193;SDS011;69515;42.072;21.504;2023-11-21T15:58:01;6.85;;;3.35;;
80193;SDS011;69515;42.072;21.504;2023-11-21T16:00:30;6.47;;;3.75;;
80193;SDS011;69515;42.072;21.504;2023-11-21T16:02:56;5.85;;;3.50;;
80193;SDS011;69515;42.072;21.504;2023-11-21T16:05:22;7.10;;;3.42;;
80193;SDS011;69515;42.072;21.504;2023-11-21T16:07:50;7.15;;;3.75;;
80193;SDS011;69515;42.072;21.504;2023-11-21T16:10:17;9.63;;;5.38;;
80193;SDS011;69515;42.072;21.504;2023-11-21T16:12:44;5.95;;;3.38;;
80193;SDS011;69515;42.072;21.504;2023-11-21T16:15:11;5.47;;;3.42;;
80193;SDS011;69515;42.072;21.504;2023-11-21T16:17:38;5.78;;;3.60;;